LPE0021 MRLB-MROC
Flight info
| Callsign | LPE0021 |
|---|---|
| Flight time | 0h 20m |
| Altitude | 15000 |
| Route | PUXAS1V PUXAS DCT TIO |
| Aircraft | A20N/M-SDE2E3FGHIRWXY/LB1 |
Departure
| Time | 2026-05-05 02:36 |
|---|---|
| Airport | Daniel Oduber Quirós International Airport (MRLB) |
Arrival
| Time | 2026-05-05 02:57 |
|---|---|
| Airport | Juan Santamaría International Airport (MROC) |
| Time | Latitude | Longitude | Altitude | Speed | Heading |
|---|---|---|---|---|---|
| 2026-05-05 02:08 | 10.60057 | -85.53403 | 272 ft | 0 kts | 340° |
| 2026-05-05 02:23 | 10.60047 | -85.53400 | 272 ft | 2 kts | 340° |
| 2026-05-05 02:23 | 10.60033 | -85.53394 | 273 ft | 2 kts | 340° |
| 2026-05-05 02:23 | 10.60019 | -85.53389 | 274 ft | 2 kts | 340° |
| 2026-05-05 02:24 | 10.60005 | -85.53384 | 274 ft | 2 kts | 340° |
| 2026-05-05 02:24 | 10.59990 | -85.53381 | 275 ft | 2 kts | 358° |
| 2026-05-05 02:24 | 10.59975 | -85.53381 | 275 ft | 2 kts | 14° |
| 2026-05-05 02:24 | 10.59960 | -85.53387 | 275 ft | 2 kts | 30° |
| 2026-05-05 02:25 | 10.59948 | -85.53396 | 275 ft | 2 kts | 47° |
| 2026-05-05 02:25 | 10.59939 | -85.53409 | 275 ft | 2 kts | 63° |
| 2026-05-05 02:25 | 10.59936 | -85.53416 | 275 ft | 1 kts | 72° |
| 2026-05-05 02:25 | 10.59935 | -85.53419 | 275 ft | 0 kts | 70° |
| 2026-05-05 02:31 | 10.59939 | -85.53408 | 275 ft | 3 kts | 70° |
| 2026-05-05 02:31 | 10.59947 | -85.53383 | 275 ft | 4 kts | 76° |
| 2026-05-05 02:31 | 10.59945 | -85.53358 | 276 ft | 3 kts | 120° |
| 2026-05-05 02:32 | 10.59923 | -85.53341 | 276 ft | 3 kts | 151° |
| 2026-05-05 02:32 | 10.59895 | -85.53329 | 276 ft | 4 kts | 158° |
| 2026-05-05 02:32 | 10.59866 | -85.53319 | 276 ft | 4 kts | 161° |
| 2026-05-05 02:32 | 10.59855 | -85.53315 | 276 ft | 0 kts | 161° |
| 2026-05-05 02:34 | 10.59835 | -85.53308 | 277 ft | 4 kts | 161° |
| 2026-05-05 02:34 | 10.59808 | -85.53298 | 277 ft | 4 kts | 156° |
| 2026-05-05 02:34 | 10.59777 | -85.53287 | 277 ft | 4 kts | 170° |
| 2026-05-05 02:35 | 10.59749 | -85.53304 | 277 ft | 5 kts | 247° |
| 2026-05-05 02:35 | 10.59746 | -85.53313 | 277 ft | 0 kts | 250° |
| 2026-05-05 02:36 | 10.59714 | -85.53402 | 276 ft | 49 kts | 249° |
| 2026-05-05 02:36 | 10.59506 | -85.53982 | 269 ft | 124 kts | 250° |
| 2026-05-05 02:36 | 10.59150 | -85.55009 | 381 ft | 173 kts | 250° |
| 2026-05-05 02:36 | 10.58793 | -85.56176 | 1042 ft | 176 kts | 251° |
| 2026-05-05 02:37 | 10.58388 | -85.57375 | 1575 ft | 187 kts | 248° |
| 2026-05-05 02:37 | 10.57898 | -85.58668 | 2054 ft | 204 kts | 248° |
| 2026-05-05 02:37 | 10.57369 | -85.60058 | 2532 ft | 221 kts | 247° |
| 2026-05-05 02:37 | 10.56797 | -85.61581 | 3042 ft | 239 kts | 248° |
| 2026-05-05 02:38 | 10.56195 | -85.63219 | 3547 ft | 257 kts | 249° |
| 2026-05-05 02:38 | 10.55370 | -85.64855 | 4071 ft | 271 kts | 226° |
| 2026-05-05 02:38 | 10.53779 | -85.65891 | 4562 ft | 280 kts | 190° |
| 2026-05-05 02:38 | 10.51866 | -85.65847 | 5245 ft | 277 kts | 156° |
| 2026-05-05 02:39 | 10.50281 | -85.64798 | 5995 ft | 270 kts | 125° |
| 2026-05-05 02:39 | 10.49428 | -85.63152 | 6734 ft | 267 kts | 104° |
| 2026-05-05 02:39 | 10.48832 | -85.61368 | 7466 ft | 272 kts | 106° |
| 2026-05-05 02:39 | 10.48185 | -85.59560 | 8182 ft | 276 kts | 107° |
| 2026-05-05 02:40 | 10.47504 | -85.57716 | 8882 ft | 281 kts | 108° |
| 2026-05-05 02:40 | 10.46816 | -85.55877 | 9551 ft | 285 kts | 108° |
| 2026-05-05 02:40 | 10.46110 | -85.53999 | 10232 ft | 288 kts | 108° |
| 2026-05-05 02:40 | 10.45378 | -85.52051 | 10631 ft | 302 kts | 108° |
| 2026-05-05 02:41 | 10.44611 | -85.50012 | 10930 ft | 319 kts | 109° |
| 2026-05-05 02:41 | 10.43769 | -85.47865 | 11195 ft | 336 kts | 111° |
| 2026-05-05 02:41 | 10.42747 | -85.45644 | 11456 ft | 352 kts | 114° |
| 2026-05-05 02:41 | 10.41654 | -85.43362 | 11714 ft | 367 kts | 114° |
| 2026-05-05 02:42 | 10.40511 | -85.40996 | 11935 ft | 381 kts | 114° |
| 2026-05-05 02:42 | 10.39323 | -85.38529 | 12160 ft | 395 kts | 114° |
| 2026-05-05 02:42 | 10.38095 | -85.35980 | 12393 ft | 407 kts | 114° |
| 2026-05-05 02:42 | 10.36837 | -85.33369 | 12800 ft | 412 kts | 115° |
| 2026-05-05 02:43 | 10.35577 | -85.30748 | 13296 ft | 415 kts | 115° |
| 2026-05-05 02:43 | 10.34320 | -85.28136 | 13777 ft | 418 kts | 115° |
| 2026-05-05 02:43 | 10.33013 | -85.25491 | 14235 ft | 421 kts | 117° |
| 2026-05-05 02:43 | 10.31487 | -85.22928 | 14667 ft | 424 kts | 123° |
| 2026-05-05 02:44 | 10.29741 | -85.20515 | 14893 ft | 426 kts | 128° |
| 2026-05-05 02:44 | 10.27808 | -85.18223 | 14903 ft | 426 kts | 130° |
| 2026-05-05 02:44 | 10.25834 | -85.15964 | 14905 ft | 425 kts | 130° |
| 2026-05-05 02:44 | 10.23854 | -85.13709 | 14908 ft | 425 kts | 130° |
| 2026-05-05 02:45 | 10.21898 | -85.11475 | 14909 ft | 426 kts | 130° |
| 2026-05-05 02:45 | 10.19929 | -85.09220 | 14908 ft | 426 kts | 130° |
| 2026-05-05 02:45 | 10.17968 | -85.06967 | 14910 ft | 426 kts | 130° |
| 2026-05-05 02:45 | 10.16006 | -85.04714 | 14910 ft | 426 kts | 130° |
| 2026-05-05 02:46 | 10.14050 | -85.02467 | 14905 ft | 426 kts | 130° |
| 2026-05-05 02:46 | 10.12093 | -85.00193 | 14910 ft | 426 kts | 128° |
| 2026-05-05 02:46 | 10.10243 | -84.97852 | 14915 ft | 426 kts | 127° |
| 2026-05-05 02:46 | 10.08409 | -84.95473 | 14916 ft | 426 kts | 127° |
| 2026-05-05 02:47 | 10.06592 | -84.93105 | 14899 ft | 425 kts | 127° |
| 2026-05-05 02:47 | 10.04772 | -84.90730 | 14926 ft | 425 kts | 127° |
| 2026-05-05 02:47 | 10.02963 | -84.88370 | 14921 ft | 423 kts | 127° |
| 2026-05-05 02:47 | 10.01147 | -84.86004 | 14511 ft | 419 kts | 127° |
| 2026-05-05 02:48 | 9.99372 | -84.83692 | 13846 ft | 414 kts | 126° |
| 2026-05-05 02:48 | 9.97614 | -84.81404 | 13422 ft | 404 kts | 126° |
| 2026-05-05 02:48 | 9.95920 | -84.79196 | 12948 ft | 396 kts | 126° |
| 2026-05-05 02:48 | 9.94249 | -84.77020 | 12522 ft | 388 kts | 126° |
| 2026-05-05 02:49 | 9.92613 | -84.74889 | 12133 ft | 379 kts | 126° |
| 2026-05-05 02:49 | 9.91001 | -84.72786 | 11777 ft | 371 kts | 126° |
| 2026-05-05 02:49 | 9.89427 | -84.70734 | 11399 ft | 363 kts | 126° |
| 2026-05-05 02:49 | 9.87904 | -84.68752 | 11036 ft | 355 kts | 126° |
| 2026-05-05 02:50 | 9.86388 | -84.66778 | 10700 ft | 348 kts | 126° |
| 2026-05-05 02:50 | 9.84922 | -84.64866 | 10362 ft | 340 kts | 124° |
| 2026-05-05 02:50 | 9.83866 | -84.62801 | 10014 ft | 329 kts | 101° |
| 2026-05-05 02:50 | 9.83877 | -84.60557 | 9721 ft | 318 kts | 73° |
| 2026-05-05 02:51 | 9.84784 | -84.58550 | 9587 ft | 305 kts | 62° |
| 2026-05-05 02:51 | 9.85753 | -84.56684 | 9407 ft | 295 kts | 64° |
| 2026-05-05 02:51 | 9.86601 | -84.54830 | 9243 ft | 285 kts | 66° |
| 2026-05-05 02:51 | 9.87358 | -84.52994 | 9012 ft | 279 kts | 68° |
| 2026-05-05 02:52 | 9.88064 | -84.51184 | 8717 ft | 275 kts | 69° |
| 2026-05-05 02:52 | 9.88745 | -84.49393 | 8442 ft | 270 kts | 69° |
| 2026-05-05 02:52 | 9.89415 | -84.47611 | 8162 ft | 266 kts | 69° |
| 2026-05-05 02:52 | 9.90066 | -84.45868 | 7744 ft | 268 kts | 69° |
| 2026-05-05 02:53 | 9.90728 | -84.44090 | 7247 ft | 273 kts | 68° |
| 2026-05-05 02:53 | 9.91401 | -84.42282 | 6777 ft | 275 kts | 69° |
| 2026-05-05 02:53 | 9.92074 | -84.40472 | 6447 ft | 272 kts | 69° |
| 2026-05-05 02:53 | 9.92732 | -84.38702 | 6133 ft | 268 kts | 68° |
| 2026-05-05 02:54 | 9.93389 | -84.36943 | 5815 ft | 265 kts | 69° |
| 2026-05-05 02:54 | 9.94037 | -84.35208 | 5512 ft | 262 kts | 69° |
| 2026-05-05 02:54 | 9.94677 | -84.33494 | 5197 ft | 259 kts | 68° |
| 2026-05-05 02:54 | 9.95317 | -84.31781 | 4876 ft | 257 kts | 69° |
| 2026-05-05 02:55 | 9.95947 | -84.30094 | 4556 ft | 254 kts | 69° |
| 2026-05-05 02:55 | 9.96567 | -84.28435 | 4252 ft | 254 kts | 68° |
| 2026-05-05 02:55 | 9.97194 | -84.26763 | 3826 ft | 250 kts | 70° |
| 2026-05-05 02:55 | 9.97778 | -84.25188 | 3510 ft | 224 kts | 70° |
| 2026-05-05 02:56 | 9.98279 | -84.23792 | 3305 ft | 201 kts | 68° |
| 2026-05-05 02:56 | 9.98778 | -84.22531 | 3028 ft | 185 kts | 73° |
| 2026-05-05 02:56 | 9.99198 | -84.21385 | 2983 ft | 152 kts | 68° |
| 2026-05-05 02:56 | 9.99472 | -84.20669 | 3013 ft | 65 kts | 69° |
| 2026-05-05 02:57 | 9.99601 | -84.20322 | 3035 ft | 48 kts | 69° |
| 2026-05-05 02:57 | 9.99675 | -84.20159 | 3042 ft | 15 kts | 37° |
| 2026-05-05 02:57 | 9.99721 | -84.20150 | 3045 ft | 0 kts | 349° |
| 2026-05-05 02:59 | 9.99720 | -84.20150 | 3045 ft | 0 kts | 349° |
| 2026-05-05 02:59 | 9.99717 | -84.20149 | 3045 ft | 0 kts | 349° |
| 2026-05-05 02:59 | 9.99767 | -84.20145 | 3047 ft | 8 kts | 354° |
| 2026-05-05 02:59 | 9.99822 | -84.20162 | 3048 ft | 7 kts | 341° |
| 2026-05-05 03:00 | 9.99833 | -84.20166 | 3048 ft | 0 kts | 341° |
| 2026-05-05 03:00 | 9.99836 | -84.20167 | 3048 ft | 0 kts | 341° |